Time;durP1;ratioP1;P1;durP2;ratioP2;P2;SDS_P1;SDS_P2;PMS_P1;PMS_P2;Temp;Humidity;BMP_temperature;BMP_pressure;BME280_temperature;BME280_humidity;BME280_pressure;Samples;Min_cycle;Max_cycle;Signal;HPM_P1;HPM_P2
2023/04/19 00:01:24;;;;;;;1.70;1.10;;;22.60;46.60;;;;;;5036324;28;20029;-67
2023/04/19 00:03:50;;;;;;;1.83;1.30;;;22.60;46.60;;;;;;5038884;28;20068;-68
2023/04/19 00:06:16;;;;;;;2.40;1.40;;;22.60;46.60;;;;;;5040629;28;20507;-67
2023/04/19 00:08:42;;;;;;;2.30;1.30;;;22.60;46.70;;;;;;5038328;28;20429;-67
2023/04/19 00:11:09;;;;;;;1.75;1.30;;;22.50;47.10;;;;;;5040743;28;20029;-68
2023/04/19 00:13:35;;;;;;;2.40;1.38;;;22.50;46.60;;;;;;5040839;28;20021;-67
2023/04/19 00:16:00;;;;;;;1.60;1.20;;;22.50;46.60;;;;;;5039417;28;20035;-67
2023/04/19 00:18:26;;;;;;;1.67;1.17;;;22.50;46.70;;;;;;5042210;28;20078;-68
2023/04/19 00:20:52;;;;;;;2.10;1.50;;;22.50;46.70;;;;;;5035468;28;20029;-67
2023/04/19 00:23:17;;;;;;;1.67;1.10;;;22.50;46.70;;;;;;5037849;28;20370;-68
2023/04/19 00:25:45;;;;;;;1.50;1.10;;;22.50;46.70;;;;;;5038226;28;20037;-68
2023/04/19 00:28:11;;;;;;;1.77;1.13;;;22.50;46.70;;;;;;5040027;28;20532;-68
2023/04/19 00:30:36;;;;;;;1.45;1.08;;;22.40;46.70;;;;;;5037527;28;20049;-68
2023/04/19 00:33:02;;;;;;;1.42;0.98;;;22.40;46.70;;;;;;5038479;28;20021;-67
2023/04/19 00:35:27;;;;;;;1.58;1.25;;;22.40;46.70;;;;;;5038664;28;20124;-67
2023/04/19 00:37:53;;;;;;;1.50;1.08;;;22.40;47.30;;;;;;5039955;28;20075;-67
2023/04/19 00:40:19;;;;;;;1.38;1.08;;;22.40;46.80;;;;;;5040513;28;20067;-67
2023/04/19 00:42:44;;;;;;;1.20;1.10;;;22.40;46.80;;;;;;5038652;28;20121;-67
2023/04/19 00:45:10;;;;;;;1.42;1.20;;;22.30;46.70;;;;;;5036320;28;20043;-67
2023/04/19 00:47:37;;;;;;;1.67;1.20;;;22.30;46.80;;;;;;5038337;28;20029;-68
2023/04/19 00:50:03;;;;;;;1.50;1.10;;;22.30;46.80;;;;;;5039267;28;20469;-67
2023/04/19 00:52:29;;;;;;;1.63;1.00;;;22.30;46.80;;;;;;5038323;28;20025;-66
2023/04/19 00:54:57;;;;;;;1.50;1.10;;;22.30;46.80;;;;;;5039047;28;20025;-67
2023/04/19 00:57:24;;;;;;;1.35;1.02;;;22.30;46.80;;;;;;5036579;28;20060;-67
2023/04/19 00:59:50;;;;;;;1.25;1.10;;;22.30;46.90;;;;;;5039182;28;20489;-67
2023/04/19 01:02:16;;;;;;;1.40;1.10;;;22.30;46.90;;;;;;5036884;28;20091;-67
2023/04/19 01:04:42;;;;;;;1.77;1.20;;;22.20;46.80;;;;;;5039207;28;20045;-66
2023/04/19 01:07:08;;;;;;;1.15;1.00;;;22.30;46.90;;;;;;5038244;28;20025;-67
2023/04/19 01:09:33;;;;;;;1.35;1.05;;;22.20;46.80;;;;;;5043336;28;20381;-67
2023/04/19 01:12:01;;;;;;;1.50;1.13;;;22.20;46.90;;;;;;5045084;28;20108;-66
2023/04/19 01:14:26;;;;;;;1.40;0.98;;;22.20;46.90;;;;;;5042932;28;20086;-67
2023/04/19 01:16:53;;;;;;;1.67;1.00;;;22.20;46.90;;;;;;5040506;28;20025;-67
2023/04/19 01:19:18;;;;;;;1.60;1.20;;;22.20;46.90;;;;;;5044592;28;20474;-67
2023/04/19 01:21:45;;;;;;;1.42;1.10;;;22.20;47.40;;;;;;5043924;28;20085;-67
2023/04/19 01:24:10;;;;;;;1.77;1.25;;;22.20;47.00;;;;;;5041360;28;20021;-67
2023/04/19 01:26:36;;;;;;;1.48;1.17;;;22.20;47.00;;;;;;5041986;28;20543;-67
2023/04/19 01:29:02;;;;;;;1.10;0.98;;;22.10;47.00;;;;;;5042668;28;20028;-67
2023/04/19 01:31:28;;;;;;;1.52;1.20;;;22.20;47.00;;;;;;5042199;28;20029;-66
2023/04/19 01:33:53;;;;;;;1.55;1.10;;;22.10;47.00;;;;;;5037438;28;20040;-68
2023/04/19 01:36:19;;;;;;;1.38;1.10;;;22.10;47.00;;;;;;5042963;28;20036;-68
2023/04/19 01:38:46;;;;;;;1.38;1.10;;;22.20;47.00;;;;;;5042855;28;20048;-67
2023/04/19 01:41:12;;;;;;;1.45;1.05;;;22.10;47.00;;;;;;5040392;28;20514;-68
2023/04/19 01:43:38;;;;;;;1.25;1.10;;;22.10;47.00;;;;;;5043986;28;20079;-67
2023/04/19 01:46:04;;;;;;;1.83;1.20;;;22.10;47.00;;;;;;5041847;28;20577;-67
2023/04/19 01:48:29;;;;;;;1.15;1.00;;;22.10;47.00;;;;;;5039687;28;20115;-68
2023/04/19 01:50:55;;;;;;;1.38;1.10;;;22.10;47.00;;;;;;5043895;28;20033;-68
2023/04/19 01:53:21;;;;;;;1.23;1.10;;;22.10;47.10;;;;;;5041279;28;20029;-68
2023/04/19 01:55:46;;;;;;;1.73;1.10;;;22.10;47.10;;;;;;5043538;28;20029;-67
2023/04/19 01:58:12;;;;;;;1.30;1.10;;;22.00;47.00;;;;;;5040279;28;20029;-67
2023/04/19 02:00:38;;;;;;;1.30;1.00;;;22.00;47.00;;;;;;5043465;28;20071;-67
2023/04/19 02:03:03;;;;;;;1.13;0.93;;;22.10;47.10;;;;;;5039128;28;20568;-67
2023/04/19 02:05:29;;;;;;;1.30;1.00;;;22.00;47.00;;;;;;5042466;28;20116;-67
2023/04/19 02:07:54;;;;;;;1.50;1.00;;;22.00;47.10;;;;;;5042700;28;20035;-67
2023/04/19 02:10:20;;;;;;;1.75;1.10;;;22.00;47.00;;;;;;5039154;28;20125;-67
2023/04/19 02:12:46;;;;;;;1.48;1.10;;;22.00;47.10;;;;;;5041577;28;20021;-67
2023/04/19 02:15:11;;;;;;;1.25;0.90;;;22.00;47.10;;;;;;5042868;28;20029;-68
2023/04/19 02:17:37;;;;;;;1.20;0.90;;;22.00;47.10;;;;;;5039706;28;20035;-67
2023/04/19 02:20:04;;;;;;;1.30;1.00;;;22.00;47.10;;;;;;5040548;28;20427;-67
2023/04/19 02:22:30;;;;;;;1.30;1.13;;;22.00;47.10;;;;;;5040359;28;20043;-68
2023/04/19 02:24:55;;;;;;;1.27;1.10;;;22.00;47.20;;;;;;5041608;28;20040;-67
2023/04/19 02:27:21;;;;;;;1.40;1.08;;;21.90;47.10;;;;;;5042247;28;20493;-66
2023/04/19 02:29:47;;;;;;;1.60;1.08;;;21.90;47.10;;;;;;5040451;28;20032;-67
2023/04/19 02:32:12;;;;;;;2.00;1.25;;;22.00;47.20;;;;;;5040628;28;20066;-67
2023/04/19 02:34:38;;;;;;;1.48;1.10;;;21.90;47.10;;;;;;5040924;28;20373;-67
2023/04/19 02:37:04;;;;;;;1.50;1.00;;;21.90;47.10;;;;;;5041885;28;20035;-67
2023/04/19 02:39:30;;;;;;;1.15;0.95;;;21.90;47.20;;;;;;5041038;28;20026;-66
2023/04/19 02:41:56;;;;;;;1.52;1.10;;;21.90;47.20;;;;;;5040969;28;20086;-67
2023/04/19 02:44:22;;;;;;;1.60;1.20;;;21.90;47.10;;;;;;5041995;28;20034;-67
2023/04/19 02:46:51;;;;;;;1.52;1.13;;;21.90;47.20;;;;;;5040516;28;20029;-67
2023/04/19 02:49:17;;;;;;;;;;;21.90;47.20;;;;;;5041366;28;20359;-66
2023/04/19 02:51:43;;;;;;;1.30;1.10;;;21.90;47.20;;;;;;5039700;28;20411;-66
2023/04/19 02:54:09;;;;;;;1.35;1.10;;;21.90;47.20;;;;;;5041341;28;20068;-67
2023/04/19 02:56:35;;;;;;;1.60;1.10;;;21.90;47.20;;;;;;5042371;28;20442;-67
2023/04/19 02:59:01;;;;;;;1.58;1.10;;;21.90;47.20;;;;;;5041138;28;20035;-67
2023/04/19 03:01:27;;;;;;;1.90;1.10;;;21.90;47.20;;;;;;5040164;28;20123;-67
2023/04/19 03:03:52;;;;;;;1.48;1.00;;;21.80;47.20;;;;;;5039551;28;20109;-67
2023/04/19 03:06:18;;;;;;;1.38;1.02;;;21.80;47.10;;;;;;5040210;28;20463;-66
2023/04/19 03:08:44;;;;;;;1.58;1.10;;;21.80;47.20;;;;;;5040376;28;20448;-68
2023/04/19 03:11:15;;;;;;;1.70;1.20;;;21.80;47.20;;;;;;5047438;28;20029;-67
2023/04/19 03:13:40;;;;;;;1.35;1.10;;;21.80;47.10;;;;;;5041279;28;20111;-67
2023/04/19 03:16:06;;;;;;;1.48;1.20;;;21.80;47.20;;;;;;5037063;28;20422;-67
2023/04/19 03:18:32;;;;;;;1.38;1.20;;;21.80;47.20;;;;;;5038712;28;20029;-67
2023/04/19 03:20:58;;;;;;;1.48;1.20;;;21.80;47.20;;;;;;5042239;28;20359;-67
2023/04/19 03:23:26;;;;;;;1.67;1.30;;;21.80;47.20;;;;;;5039123;28;20021;-67
2023/04/19 03:25:52;;;;;;;1.70;1.15;;;21.80;47.20;;;;;;5044716;28;20033;-67
2023/04/19 03:28:18;;;;;;;1.70;1.30;;;21.80;47.20;;;;;;5040460;28;20099;-67
2023/04/19 03:30:43;;;;;;;1.42;1.10;;;21.80;47.20;;;;;;5037258;28;20029;-67
2023/04/19 03:33:09;;;;;;;1.77;1.20;;;21.70;47.20;;;;;;5038305;28;20048;-66
2023/04/19 03:35:35;;;;;;;1.63;1.10;;;21.70;47.20;;;;;;5038605;28;20476;-66
2023/04/19 03:38:00;;;;;;;1.35;1.13;;;21.70;47.20;;;;;;5040062;28;20362;-68
2023/04/19 03:40:26;;;;;;;1.45;1.10;;;21.70;47.20;;;;;;5038802;28;20579;-68
2023/04/19 03:42:51;;;;;;;1.50;1.20;;;21.70;47.20;;;;;;5042692;28;20029;-68
2023/04/19 03:45:17;;;;;;;1.52;1.05;;;21.70;47.20;;;;;;5038291;28;20029;-68
2023/04/19 03:47:43;;;;;;;2.05;1.35;;;21.70;47.20;;;;;;5038545;28;20030;-67
2023/04/19 03:50:09;;;;;;;1.60;1.30;;;21.70;47.20;;;;;;5042262;28;20087;-68
2023/04/19 03:52:34;;;;;;;1.50;1.20;;;21.70;47.20;;;;;;5040620;28;20056;-67
2023/04/19 03:55:00;;;;;;;1.20;1.02;;;21.70;47.20;;;;;;5035997;28;20021;-67
2023/04/19 03:57:26;;;;;;;1.42;1.17;;;21.70;47.20;;;;;;5039997;28;20064;-68
2023/04/19 03:59:51;;;;;;;1.90;1.17;;;21.70;47.30;;;;;;5040256;28;20445;-67
2023/04/19 04:02:17;;;;;;;1.33;1.10;;;21.70;47.20;;;;;;5037543;28;20028;-67
2023/04/19 04:04:42;;;;;;;1.60;1.15;;;21.70;47.30;;;;;;5038361;28;20377;-67
2023/04/19 04:07:08;;;;;;;1.55;1.10;;;21.70;47.30;;;;;;5039126;28;20096;-67
2023/04/19 04:09:33;;;;;;;1.55;1.10;;;21.70;47.30;;;;;;5039047;28;20418;-67
2023/04/19 04:11:59;;;;;;;2.53;1.27;;;21.70;47.40;;;;;;5039719;28;20451;-67
2023/04/19 04:14:25;;;;;;;1.65;1.20;;;21.60;47.30;;;;;;5039003;28;20022;-65
2023/04/19 04:16:50;;;;;;;1.65;1.20;;;21.70;47.30;;;;;;5039717;28;20030;-66
2023/04/19 04:19:17;;;;;;;1.92;1.30;;;21.70;47.30;;;;;;5037915;28;20026;-66
2023/04/19 04:21:42;;;;;;;1.60;1.20;;;21.70;47.30;;;;;;5039271;28;20120;-66
2023/04/19 04:24:08;;;;;;;1.63;1.25;;;21.70;47.20;;;;;;5039922;28;20121;-66
2023/04/19 04:26:34;;;;;;;1.90;1.35;;;21.60;47.20;;;;;;5035635;28;20485;-66
2023/04/19 04:29:02;;;;;;;1.75;1.35;;;21.60;47.20;;;;;;5038217;28;20040;-67
2023/04/19 04:31:28;;;;;;;2.20;1.40;;;21.60;47.20;;;;;;5039061;28;20143;-66
2023/04/19 04:33:54;;;;;;;2.08;1.50;;;21.60;47.20;;;;;;5040834;28;20029;-66
2023/04/19 04:36:20;;;;;;;1.92;1.45;;;21.60;47.10;;;;;;5037489;28;20021;-66
2023/04/19 04:38:46;;;;;;;2.40;1.73;;;21.60;47.00;;;;;;5040326;28;20100;-66
2023/04/19 04:41:12;;;;;;;1.85;1.50;;;21.60;47.00;;;;;;5038770;28;20762;-67
2023/04/19 04:43:38;;;;;;;1.80;1.40;;;21.60;47.00;;;;;;5036225;28;20033;-66
2023/04/19 04:46:04;;;;;;;2.22;1.58;;;21.60;47.00;;;;;;5039690;28;20029;-67
2023/04/19 04:48:30;;;;;;;2.08;1.58;;;21.60;47.00;;;;;;5035761;28;20596;-67
2023/04/19 04:50:56;;;;;;;2.28;1.52;;;21.60;47.00;;;;;;5040342;28;20395;-67
2023/04/19 04:53:24;;;;;;;1.90;1.50;;;21.60;47.00;;;;;;5040483;28;20078;-67
2023/04/19 04:55:52;;;;;;;2.40;1.50;;;21.60;47.00;;;;;;5040437;28;20033;-66
2023/04/19 04:58:18;;;;;;;1.98;1.60;;;21.60;47.00;;;;;;5037534;28;20026;-66
2023/04/19 05:00:44;;;;;;;2.00;1.55;;;21.60;47.10;;;;;;5039061;28;20082;-67
2023/04/19 05:03:10;;;;;;;2.10;1.52;;;21.60;47.10;;;;;;5036501;28;20028;-67
2023/04/19 05:05:35;;;;;;;2.45;1.70;;;21.50;47.10;;;;;;5039178;28;20059;-67
2023/04/19 05:08:01;;;;;;;2.40;1.50;;;21.60;47.20;;;;;;5036207;28;20498;-67
2023/04/19 05:10:27;;;;;;;2.13;1.50;;;21.50;47.10;;;;;;5040067;28;20029;-67
2023/04/19 05:12:52;;;;;;;1.90;1.40;;;21.50;47.10;;;;;;5039004;28;20029;-67
2023/04/19 05:15:18;;;;;;;1.90;1.30;;;21.50;47.20;;;;;;5035438;28;20104;-67
2023/04/19 05:17:43;;;;;;;2.15;1.60;;;21.50;47.10;;;;;;5035396;28;20053;-67
2023/04/19 05:20:09;;;;;;;1.88;1.40;;;21.50;47.20;;;;;;5035354;28;20025;-67
2023/04/19 05:22:35;;;;;;;2.13;1.35;;;21.50;47.20;;;;;;5036770;28;20025;-68
2023/04/19 05:25:01;;;;;;;2.20;1.50;;;21.50;47.20;;;;;;5036390;28;20458;-67
2023/04/19 05:27:27;;;;;;;2.50;1.50;;;21.50;47.20;;;;;;5037139;28;20045;-67
2023/04/19 05:29:52;;;;;;;2.42;1.40;;;21.50;47.20;;;;;;5038192;28;20544;-67
2023/04/19 05:32:18;;;;;;;2.15;1.50;;;21.50;47.70;;;;;;5038053;28;20028;-67
2023/04/19 05:34:43;;;;;;;2.28;1.40;;;21.50;47.30;;;;;;5037559;28;20030;-67
2023/04/19 05:37:09;;;;;;;2.70;1.67;;;21.50;47.30;;;;;;5040447;28;20096;-66
2023/04/19 05:39:35;;;;;;;2.25;1.48;;;21.50;47.30;;;;;;5041757;28;20030;-66
2023/04/19 05:42:00;;;;;;;2.25;1.35;;;21.50;47.30;;;;;;5038431;28;20029;-66
2023/04/19 05:44:26;;;;;;;2.10;1.50;;;21.50;47.30;;;;;;5037695;28;20100;-66
2023/04/19 05:46:52;;;;;;;2.20;1.55;;;21.50;47.30;;;;;;5036012;28;20112;-66
2023/04/19 05:49:17;;;;;;;2.20;1.42;;;21.50;47.40;;;;;;5034879;28;20083;-65
2023/04/19 05:51:43;;;;;;;3.88;1.50;;;21.50;47.60;;;;;;5051188;28;20037;-65
2023/04/19 05:54:11;;;;;;;2.03;1.40;;;21.50;48.00;;;;;;5043415;28;20477;-66
2023/04/19 05:56:37;;;;;;;3.38;1.50;;;21.50;47.80;;;;;;5050557;28;20066;-65
2023/04/19 05:59:03;;;;;;;2.60;1.67;;;21.50;47.90;;;;;;5054287;28;20115;-65
2023/04/19 06:01:29;;;;;;;2.50;1.60;;;21.60;47.80;;;;;;5044937;28;20508;-66
2023/04/19 06:03:55;;;;;;;2.88;1.50;;;21.60;47.80;;;;;;5039707;28;20405;-62
2023/04/19 06:06:21;;;;;;;1.98;1.48;;;21.60;47.80;;;;;;5041612;28;20036;-65
2023/04/19 06:08:47;;;;;;;2.40;1.60;;;21.60;47.80;;;;;;5040988;28;20029;-65
2023/04/19 06:11:12;;;;;;;3.00;1.65;;;21.60;47.80;;;;;;5042239;28;20040;-65
2023/04/19 06:13:38;;;;;;;2.40;1.52;;;21.60;47.80;;;;;;5042015;28;20060;-65
2023/04/19 06:16:04;;;;;;;2.40;1.70;;;21.60;47.80;;;;;;5042962;28;20056;-65
2023/04/19 06:18:31;;;;;;;2.63;1.67;;;21.60;47.70;;;;;;5038932;28;20109;-65
2023/04/19 06:20:56;;;;;;;2.65;1.70;;;21.70;47.80;;;;;;5042103;28;20025;-65
2023/04/19 06:23:22;;;;;;;2.08;1.50;;;21.60;47.60;;;;;;5040743;28;20041;-65
2023/04/19 06:25:48;;;;;;;2.33;1.75;;;21.70;47.70;;;;;;5042380;28;20500;-65
2023/04/19 06:28:13;;;;;;;2.10;1.45;;;21.70;47.60;;;;;;5043850;28;20041;-65
2023/04/19 06:30:39;;;;;;;2.20;1.58;;;21.70;47.60;;;;;;5040943;28;20052;-65
2023/04/19 06:33:05;;;;;;;1.98;1.33;;;21.70;47.60;;;;;;5039950;28;20394;-66
2023/04/19 06:35:31;;;;;;;2.20;1.58;;;21.80;47.60;;;;;;5042914;28;20122;-65
2023/04/19 06:37:58;;;;;;;2.10;1.50;;;21.80;47.50;;;;;;5042356;28;20068;-66
2023/04/19 06:40:25;;;;;;;3.53;1.48;;;21.80;47.50;;;;;;5042400;28;20029;-65
2023/04/19 06:42:51;;;;;;;2.88;1.70;;;21.80;47.50;;;;;;5041023;28;20030;-65
2023/04/19 06:45:17;;;;;;;2.25;1.45;;;21.80;47.50;;;;;;5041243;28;20508;-66
2023/04/19 06:47:43;;;;;;;3.08;1.50;;;21.90;47.50;;;;;;5041060;28;20038;-65
2023/04/19 06:50:10;;;;;;;2.50;1.65;;;21.80;47.40;;;;;;5039697;28;20353;-66
2023/04/19 06:52:35;;;;;;;2.40;1.75;;;21.80;47.30;;;;;;5040183;28;20025;-66
2023/04/19 06:55:01;;;;;;;2.85;1.77;;;21.90;47.40;;;;;;5041938;28;20104;-66
2023/04/19 06:57:27;;;;;;;2.38;1.60;;;21.90;47.30;;;;;;5041962;28;20029;-66
2023/04/19 06:59:56;;;;;;;2.63;1.40;;;21.90;47.30;;;;;;5040831;28;20408;-65
2023/04/19 07:02:22;;;;;;;2.70;1.60;;;22.00;47.30;;;;;;5041562;28;20017;-65
2023/04/19 07:04:48;;;;;;;2.92;1.70;;;22.00;47.30;;;;;;5038420;28;20108;-65
2023/04/19 07:07:13;;;;;;;1.83;1.40;;;22.00;47.30;;;;;;5042139;28;20033;-65
2023/04/19 07:09:39;;;;;;;2.10;1.50;;;22.00;47.30;;;;;;5044246;28;20549;-65
2023/04/19 07:12:05;;;;;;;2.60;1.60;;;22.00;47.20;;;;;;5038016;28;20158;-64
2023/04/19 07:14:31;;;;;;;2.17;1.50;;;22.00;47.20;;;;;;5038589;28;20029;-64
2023/04/19 07:16:56;;;;;;;3.13;1.90;;;22.00;47.20;;;;;;5038253;28;20032;-65
2023/04/19 07:19:22;;;;;;;2.35;1.60;;;22.10;47.20;;;;;;5039215;28;20083;-65
2023/04/19 07:21:48;;;;;;;2.72;1.60;;;22.10;47.10;;;;;;5039052;28;20033;-66
2023/04/19 07:24:15;;;;;;;2.63;1.55;;;22.10;47.10;;;;;;5041533;28;20044;-66
2023/04/19 07:26:41;;;;;;;3.33;1.50;;;22.10;47.30;;;;;;5039410;28;20520;-66
2023/04/19 07:29:07;;;;;;;2.55;1.60;;;22.10;47.10;;;;;;5039666;28;20109;-66
2023/04/19 07:31:32;;;;;;;2.28;1.50;;;22.20;47.20;;;;;;5041046;28;20038;-66
2023/04/19 07:33:58;;;;;;;2.83;1.50;;;22.20;47.10;;;;;;5034846;28;20021;-66
2023/04/19 07:36:24;;;;;;;2.33;1.65;;;22.20;47.10;;;;;;5039470;28;20036;-66
2023/04/19 07:38:49;;;;;;;2.70;1.70;;;22.20;47.00;;;;;;5043026;28;20049;-65
2023/04/19 07:41:15;;;;;;;2.58;1.70;;;22.20;47.00;;;;;;5041111;28;20338;-66
2023/04/19 07:43:41;;;;;;;2.38;1.50;;;22.30;47.00;;;;;;5042220;28;20068;-66
2023/04/19 07:46:11;;;;;;;2.90;1.80;;;22.30;47.00;;;;;;5040480;28;20029;-66
2023/04/19 07:48:37;;;;;;;2.95;1.63;;;22.30;47.00;;;;;;5037962;28;20033;-66
2023/04/19 07:51:13;;;;;;;2.53;1.58;;;22.30;47.00;;;;;;5038423;28;20029;-66
2023/04/19 07:53:40;;;;;;;2.22;1.48;;;22.30;46.90;;;;;;5039536;28;20515;-65
2023/04/19 07:56:10;;;;;;;2.63;1.50;;;22.30;46.90;;;;;;5041021;28;20031;-66
2023/04/19 07:58:37;;;;;;;2.72;1.65;;;22.30;47.00;;;;;;5038084;28;20036;-65
2023/04/19 08:01:04;;;;;;;2.90;1.70;;;22.40;47.10;;;;;;5036240;28;20042;-65
2023/04/19 08:03:30;;;;;;;3.08;1.80;;;22.40;47.00;;;;;;5035214;28;20040;-65
2023/04/19 08:05:56;;;;;;;2.28;1.50;;;22.40;47.00;;;;;;5038442;28;20029;-65
2023/04/19 08:08:23;;;;;;;2.25;1.52;;;22.40;47.00;;;;;;5040617;28;20089;-66
2023/04/19 08:10:49;;;;;;;2.00;1.48;;;22.40;46.90;;;;;;5038591;28;20051;-66
2023/04/19 08:13:15;;;;;;;2.70;1.50;;;22.50;46.90;;;;;;5038761;28;20021;-65
2023/04/19 08:15:41;;;;;;;2.25;1.42;;;22.50;46.80;;;;;;5038296;28;20097;-65
2023/04/19 08:18:06;;;;;;;2.63;1.48;;;22.50;46.80;;;;;;5040557;28;20025;-65
2023/04/19 08:20:32;;;;;;;2.60;1.58;;;22.50;46.70;;;;;;5036137;28;20104;-65
2023/04/19 08:22:59;;;;;;;2.70;1.67;;;22.50;46.70;;;;;;5038735;28;20032;-66
2023/04/19 08:25:27;;;;;;;2.97;1.80;;;22.50;46.80;;;;;;5040064;28;20029;-65
2023/04/19 08:27:56;;;;;;;3.10;1.57;;;22.50;46.80;;;;;;5038542;28;20112;-66
2023/04/19 08:30:22;;;;;;;;;;;22.50;46.80;;;;;;5039579;28;20112;-66
2023/04/19 08:32:48;;;;;;;3.33;2.05;;;22.50;46.80;;;;;;5038821;28;20443;-65
2023/04/19 08:35:14;;;;;;;2.30;1.60;;;22.50;46.80;;;;;;5039227;28;20074;-66
2023/04/19 08:37:39;;;;;;;2.28;1.42;;;22.60;46.80;;;;;;5040878;28;20774;-65
2023/04/19 08:40:06;;;;;;;3.17;1.40;;;22.50;46.80;;;;;;5039121;28;20068;-65
2023/04/19 08:42:32;;;;;;;2.30;1.60;;;22.60;47.00;;;;;;5037433;28;20425;-65
2023/04/19 08:45:05;;;;;;;2.10;1.50;;;22.60;46.90;;;;;;5040680;28;20385;-66
2023/04/19 08:47:34;;;;;;;3.22;1.63;;;22.50;46.80;;;;;;5041475;28;20029;-65
2023/04/19 08:50:03;;;;;;;3.00;1.88;;;22.60;46.70;;;;;;5038700;28;20025;-65
2023/04/19 08:52:29;;;;;;;3.22;1.83;;;22.60;46.70;;;;;;5038768;28;20025;-65
2023/04/19 08:54:56;;;;;;;3.60;1.88;;;22.60;46.70;;;;;;5038474;28;20022;-65
2023/04/19 08:57:21;;;;;;;2.53;1.80;;;22.60;46.70;;;;;;5044252;28;20021;-66
2023/04/19 08:59:51;;;;;;;2.65;1.73;;;22.60;46.70;;;;;;5046135;28;20028;-65
2023/04/19 09:02:16;;;;;;;3.05;1.60;;;22.60;46.80;;;;;;5039382;28;20505;-65
2023/04/19 09:04:42;;;;;;;1.88;1.40;;;22.60;46.70;;;;;;5036909;28;20066;-65
2023/04/19 09:07:07;;;;;;;2.40;1.70;;;22.60;46.70;;;;;;5041703;28;20023;-65
2023/04/19 09:09:34;;;;;;;2.80;1.60;;;22.60;46.60;;;;;;5044179;28;20021;-64
2023/04/19 09:12:00;;;;;;;2.42;1.55;;;22.60;46.70;;;;;;5043425;28;20080;-65
2023/04/19 09:14:27;;;;;;;2.30;1.60;;;22.60;46.70;;;;;;5040586;28;20041;-65
2023/04/19 09:16:53;;;;;;;3.33;1.60;;;22.60;46.70;;;;;;5040029;28;20029;-65
2023/04/19 09:19:19;;;;;;;2.55;1.60;;;22.60;46.70;;;;;;5036182;28;20036;-65
2023/04/19 09:21:45;;;;;;;2.38;1.58;;;22.70;46.70;;;;;;5037417;28;20029;-65
2023/04/19 09:24:10;;;;;;;2.45;1.60;;;22.70;46.70;;;;;;5039482;28;20992;-65
2023/04/19 09:26:36;;;;;;;2.63;1.63;;;22.70;46.70;;;;;;5036999;28;20053;-65
2023/04/19 09:29:04;;;;;;;2.53;1.70;;;22.70;46.60;;;;;;5039897;28;20038;-65
2023/04/19 09:31:31;;;;;;;2.88;1.75;;;22.70;46.70;;;;;;5041087;28;20025;-65
2023/04/19 09:33:57;;;;;;;2.72;1.60;;;22.70;46.60;;;;;;5043044;28;20013;-65
2023/04/19 09:36:28;;;;;;;2.63;1.67;;;22.70;46.70;;;;;;5040924;28;20084;-66
2023/04/19 09:38:54;;;;;;;2.05;1.45;;;22.70;46.70;;;;;;5043474;28;20052;-65
2023/04/19 09:41:20;;;;;;;2.35;1.50;;;22.70;46.70;;;;;;5045440;28;20107;-65
2023/04/19 09:43:46;;;;;;;2.72;1.70;;;22.70;46.60;;;;;;5041216;28;20109;-65
2023/04/19 09:46:30;;;;;;;1.95;1.40;;;22.70;46.70;;;;;;5044411;28;20537;-65
2023/04/19 09:49:15;;;;;;;1.92;1.48;;;22.70;46.60;;;;;;5040394;28;20507;-65
2023/04/19 09:51:45;;;;;;;2.75;1.70;;;22.80;46.60;;;;;;5040402;28;20121;-65
2023/04/19 09:54:11;;;;;;;2.45;1.70;;;22.70;46.50;;;;;;5045573;28;20016;-65
2023/04/19 09:56:38;;;;;;;3.00;1.75;;;22.80;46.50;;;;;;5054341;28;20032;-65
2023/04/19 09:59:08;;;;;;;2.35;1.70;;;22.80;46.50;;;;;;5046397;28;20469;-65
2023/04/19 10:01:43;;;;;;;1.90;1.45;;;22.80;46.50;;;;;;5040711;28;20099;-66
2023/04/19 10:04:11;;;;;;;2.20;1.50;;;22.80;46.50;;;;;;5053347;28;20025;-65
2023/04/19 10:06:39;;;;;;;3.67;1.73;;;22.80;46.60;;;;;;5052547;28;20032;-65
2023/04/19 10:09:05;;;;;;;2.47;1.70;;;22.80;46.50;;;;;;5055025;28;20054;-65
2023/04/19 10:11:39;;;;;;;3.30;2.00;;;22.80;46.50;;;;;;5056316;28;20022;-65
2023/04/19 10:14:09;;;;;;;2.50;1.77;;;22.80;46.50;;;;;;5055105;28;20049;-66
2023/04/19 10:16:37;;;;;;;2.63;1.63;;;22.80;46.50;;;;;;5054442;28;20500;-65
2023/04/19 10:19:15;;;;;;;2.40;1.60;;;22.80;46.50;;;;;;5056521;28;20045;-64
2023/04/19 10:21:42;;;;;;;2.35;1.70;;;22.80;46.40;;;;;;5055082;28;20080;-65
2023/04/19 10:24:13;;;;;;;2.88;1.65;;;22.90;46.50;;;;;;5055812;28;20032;-66
2023/04/19 10:27:04;;;;;;;2.80;1.80;;;22.90;46.40;;;;;;5048909;28;20058;-65
2023/04/19 10:30:04;;;;;;;2.95;2.03;;;22.90;46.40;;;;;;5043513;28;20116;-65
2023/04/19 10:32:39;;;;;;;2.60;1.73;;;22.90;46.40;;;;;;5044652;28;20362;-64
2023/04/19 10:35:33;;;;;;;2.38;1.70;;;22.90;46.40;;;;;;5041546;28;20365;-65
2023/04/19 10:38:01;;;;;;;2.50;1.80;;;22.90;46.40;;;;;;5043060;28;20377;-65
2023/04/19 10:40:56;;;;;;;2.13;1.60;;;22.90;46.50;;;;;;5040564;28;20036;-65
2023/04/19 10:43:29;;;;;;;2.75;1.80;;;22.90;46.60;;;;;;5041365;28;20508;-65
2023/04/19 10:46:08;;;;;;;2.15;1.50;;;22.90;46.50;;;;;;5041383;28;20063;-65
2023/04/19 10:48:39;;;;;;;2.30;1.60;;;22.90;46.50;;;;;;5042064;28;20108;-66
2023/04/19 10:51:13;;;;;;;3.47;1.60;;;23.00;46.50;;;;;;5041447;28;20553;-66
2023/04/19 10:53:49;;;;;;;2.42;1.40;;;22.90;46.40;;;;;;5040327;28;20021;-66
2023/04/19 10:56:17;;;;;;;2.40;1.67;;;22.90;46.40;;;;;;5040966;28;20108;-65
2023/04/19 10:59:01;;;;;;;2.50;1.60;;;23.00;46.40;;;;;;5041338;28;20029;-66
2023/04/19 11:01:43;;;;;;;2.63;1.70;;;23.00;46.40;;;;;;5040810;28;20053;-66
2023/04/19 11:04:10;;;;;;;2.50;1.80;;;23.00;46.50;;;;;;5038500;28;20055;-65
2023/04/19 11:06:56;;;;;;;2.03;1.58;;;23.00;46.50;;;;;;5039853;28;20033;-65
2023/04/19 11:09:23;;;;;;;3.53;1.80;;;23.00;46.50;;;;;;5042037;28;20503;-65
2023/04/19 11:11:49;;;;;;;2.42;1.70;;;23.00;46.50;;;;;;5041061;28;20021;-66
2023/04/19 11:14:15;;;;;;;2.30;1.52;;;23.00;46.50;;;;;;5035196;28;20017;-65
2023/04/19 11:16:41;;;;;;;2.10;1.60;;;23.00;46.40;;;;;;5040317;28;20032;-65
2023/04/19 11:19:07;;;;;;;2.22;1.67;;;23.00;46.40;;;;;;5039319;28;20025;-65
2023/04/19 11:21:32;;;;;;;2.38;1.60;;;23.00;46.30;;;;;;5039090;28;20037;-66
2023/04/19 11:24:11;;;;;;;2.67;1.70;;;23.00;46.30;;;;;;5040079;28;20361;-66
2023/04/19 11:26:37;;;;;;;2.60;1.70;;;23.00;46.20;;;;;;5043752;28;20552;-65
2023/04/19 11:29:05;;;;;;;2.40;1.67;;;23.00;46.20;;;;;;5043665;28;20113;-66
2023/04/19 11:31:34;;;;;;;2.80;1.75;;;23.00;46.20;;;;;;5040318;28;20113;-65
2023/04/19 11:33:59;;;;;;;4.38;1.60;;;23.00;46.10;;;;;;5041424;28;20060;-65
2023/04/19 11:36:25;;;;;;;2.33;1.77;;;23.00;46.20;;;;;;5041145;28;20153;-65
2023/04/19 11:38:52;;;;;;;2.67;1.80;;;23.00;46.20;;;;;;5040658;28;20182;-64
2023/04/19 11:41:18;;;;;;;2.65;1.67;;;23.00;46.10;;;;;;5038287;28;20026;-64
2023/04/19 11:43:45;;;;;;;2.40;1.70;;;23.00;46.10;;;;;;5038093;28;20029;-65
2023/04/19 11:46:12;;;;;;;2.50;1.70;;;23.00;46.00;;;;;;5041199;28;20021;-65
2023/04/19 11:48:38;;;;;;;1.83;1.38;;;23.00;46.00;;;;;;5038831;28;20032;-65
2023/04/19 11:51:04;;;;;;;3.00;1.92;;;23.00;46.10;;;;;;5036938;28;20038;-65
2023/04/19 11:53:31;;;;;;;2.60;1.60;;;23.00;46.10;;;;;;5040066;28;20035;-65
2023/04/19 11:56:04;;;;;;;2.53;1.52;;;23.00;46.00;;;;;;5038583;28;20036;-65
2023/04/19 11:58:38;;;;;;;2.55;1.77;;;23.00;46.00;;;;;;5039466;28;20091;-66
2023/04/19 12:01:07;;;;;;;2.70;1.77;;;23.00;46.00;;;;;;5041265;28;20391;-65
2023/04/19 12:03:41;;;;;;;2.87;2.00;;;23.00;46.00;;;;;;5038437;28;20107;-64
2023/04/19 12:06:11;;;;;;;2.10;1.70;;;22.90;46.00;;;;;;5038488;28;20270;-65
2023/04/19 12:08:38;;;;;;;2.00;1.52;;;22.90;46.00;;;;;;5041627;28;20029;-65
2023/04/19 12:11:05;;;;;;;1.90;1.38;;;22.90;46.00;;;;;;5040707;28;20094;-65
2023/04/19 12:13:31;;;;;;;2.47;1.60;;;22.90;45.90;;;;;;5039655;28;20029;-65
2023/04/19 12:15:58;;;;;;;2.33;1.60;;;22.90;46.00;;;;;;5040146;28;20405;-64
2023/04/19 12:18:23;;;;;;;2.45;1.60;;;22.90;46.00;;;;;;5039326;28;20037;-64
2023/04/19 12:20:51;;;;;;;3.88;1.70;;;22.90;46.00;;;;;;5037159;28;20033;-64
2023/04/19 12:23:18;;;;;;;2.30;1.50;;;22.90;46.00;;;;;;5039890;28;20485;-64
2023/04/19 12:25:46;;;;;;;2.85;1.70;;;22.90;46.00;;;;;;5039566;28;20485;-65
2023/04/19 12:28:13;;;;;;;2.30;1.52;;;22.90;46.00;;;;;;5038579;28;20036;-64
2023/04/19 12:30:39;;;;;;;2.67;1.90;;;22.90;45.90;;;;;;5037700;28;20073;-65
2023/04/19 12:33:06;;;;;;;2.33;1.52;;;22.90;45.90;;;;;;5038363;28;20095;-65
2023/04/19 12:35:33;;;;;;;1.90;1.38;;;22.90;46.10;;;;;;5038625;28;20032;-65
2023/04/19 12:37:59;;;;;;;2.30;1.52;;;22.90;46.00;;;;;;5037898;28;20580;-65
2023/04/19 12:40:26;;;;;;;2.10;1.33;;;22.90;46.10;;;;;;5039497;28;20037;-65
2023/04/19 12:42:53;;;;;;;1.98;1.40;;;22.90;46.10;;;;;;5041420;28;20029;-65
2023/04/19 12:45:19;;;;;;;2.42;1.55;;;22.90;46.10;;;;;;5035397;28;20047;-64
2023/04/19 12:47:46;;;;;;;2.10;1.45;;;22.90;46.10;;;;;;5035630;28;20109;-65